ADDS METAR Data INFO
IDs: Format: Raw Decoded Include TAF

Data at: 0351 UTC 20 Feb 2018

KMNH 200330Z AUTO 03008KT 1 1/2SM -SN BKN004 OVC017 M16/M17 A2954 RMK AO2
KMNH 200312Z AUTO 04008KT 10SM -SN OVC017 M15/M17 A2955 RMK AO2
KMNH 200254Z AUTO 03008KT 7SM -SN OVC017 M15/M17 A2953 RMK AO2
KMNH 200230Z AUTO 04005KT 2 1/2SM -SN SCT010 OVC017 M14/M16 A2953 RMK AO2
KMNH 200212Z AUTO 04006KT 5SM -SN OVC008 M14/M16 A2954 RMK AO2
KMNH 200153Z AUTO 01007KT 5SM -SN OVC008 M13/M15 A2951 RMK AO2
KMNH 200129Z AUTO 03006KT 5SM -SN OVC008 M13/M14 A2950 RMK AO2
KMNH 200111Z AUTO 03004KT 2SM -SN OVC006 M12/M13 A2950 RMK AO2 VIS 1 1/2V3
KMNH 200054Z AUTO 02005KT 4SM -SN OVC004 M12/M13 A2948 RMK AO2
KMNH 200030Z AUTO 30006KT 5SM -SN OVC004 M11/M12 A2948 RMK AO2
KMNH 200012Z AUTO 31006KT 7SM -SN OVC006 M11/M12 A2948 RMK AO2
KMNH 192354Z AUTO 32006KT 10SM OVC006 M11/M12 A2947 RMK AO2
KMNH 192330Z AUTO 33007KT 10SM SCT006 OVC011 M10/M12 A2946 RMK AO2
KMNH 192312Z AUTO 33008KT 10SM OVC011 M10/M11 A2946 RMK AO2
KMNH 192254Z AUTO 34005KT 10SM OVC011 M08/M10 A2946 RMK AO2
KMNH 192230Z AUTO 29007KT 10SM BKN011 OVC014 M07/M09 A2945 RMK AO2
KMNH 192212Z AUTO 23006KT 10SM BKN011 OVC015 M06/M09 A2945 RMK AO2
KMNH 192154Z AUTO 22010KT 10SM OVC011 M07/M09 A2944 RMK AO2
KMNH 192130Z AUTO 21011KT 10SM SCT014 SCT022 BKN120 M06/M08 A2945 RMK AO2
KMNH 192112Z AUTO 22012G16KT 10SM SCT012 SCT022 SCT095 M07/M08 A2944 RMK AO2
KMNH 192053Z AUTO 17008KT 10SM -SN SCT010 A2944 RMK AO2
KMNH 192030Z AUTO 16012G17KT 10SM BKN010 A2945 RMK AO2
KMNH 192012Z AUTO 16011G18KT 10SM -SN OVC010 A2946 RMK AO2
KMNH 191954Z AUTO 16015KT 4SM -SN OVC010 A2946 RMK AO2
KMNH 191930Z AUTO 14013G16KT 7SM -SN OVC010 A2949 RMK AO2
KMNH 191912Z AUTO 15009G15KT 10SM -SN BKN010 OVC085 A2949 RMK AO2
KMNH 191854Z AUTO 15013KT 10SM OVC008 A2950 RMK AO2
KMNH 191830Z AUTO 17008KT 120V190 10SM OVC008 A2952 RMK AO2
KMNH 191812Z AUTO 15003KT 10SM OVC008 A2953 RMK AO2
KMNH 191749Z AUTO 15003KT 7SM -SN OVC006 A2953 RMK AO2
KMNH 191731Z AUTO 16010G15KT 7SM OVC006 A2955 RMK AO2
KMNH 191712Z AUTO 16012G17KT 5SM -SN OVC004 A2953 RMK AO2
KMNH 191649Z AUTO 13010KT 10SM OVC006 A2955 RMK AO2
KMNH 191631Z AUTO 13006KT 4SM -SN OVC004 A2956 RMK AO2
KMNH 191612Z AUTO 13004KT 1SM -SN OVC004 A2957 RMK AO2 VIS 1/2V2 1/2
KMNH 191554Z AUTO 11003KT 2SM -SN OVC004 A2958 RMK AO2 VIS 1V4
KMNH 191530Z AUTO 00000KT 1SM -SN OVC002 A2960 RMK AO2
KMNH 191512Z AUTO 08003KT 2 1/2SM -SN OVC002 A2959 RMK AO2 VIS 1 1/2V5
KMNH 191449Z AUTO 05003KT 3/4SM -SN OVC002 A2960 RMK AO2
KMNH 191430Z AUTO 02004KT 1 1/2SM -SN OVC002 A2960 RMK AO2
KMNH 191412Z AUTO 04005KT 1SM -SN OVC002 A2959 RMK AO2
KMNH 191349Z AUTO 08003KT 3/4SM -SN OVC002 A2959 RMK AO2
KMNH 191331Z AUTO 04003KT 3/4SM -SN OVC002 A2959 RMK AO2
KMNH 191313Z AUTO 06004KT 3/4SM -SN OVC002 A2959 RMK AO2
KMNH 191254Z AUTO 04005KT 1/2SM -SN OVC002 A2959 RMK AO2
KMNH 191230Z AUTO 05005KT 1/2SM FG OVC002 A2959 RMK AO2
KMNH 191212Z AUTO 05004KT 1/2SM FG OVC002 A2959 RMK AO2
KMNH 191153Z AUTO 03005KT 1/2SM FG OVC002 A2957 RMK AO2
KMNH 191129Z AUTO 03005KT 1/4SM FG OVC002 A2959 RMK AO2
KMNH 191111Z AUTO 03007KT 1/2SM FZFG OVC002 M10/M11 A2957 RMK AO2
KMNH 191052Z AUTO 02006KT 1/4SM FZFG OVC002 M10/M11 A2959 RMK AO2
KMNH 191029Z AUTO 04009KT 1/2SM FZFG OVC002 M09/M10 A2957 RMK AO2
KMNH 191012Z AUTO 05006KT 1/4SM FZFG OVC002 M09/M10 A2958 RMK AO2
KMNH 190954Z AUTO 02006KT 1/4SM FZFG OVC002 M08/M09 A2957 RMK AO2
KMNH 190930Z AUTO 36004KT 1/4SM FZFG OVC002 M08/M08 A2957 RMK AO2
KMNH 190912Z AUTO 00000KT 1/4SM FZFG OVC002 M07/M08 A2959 RMK AO2
KMNH 190854Z AUTO 04005KT 1/4SM FZFG OVC002 M07/M08 A2958 RMK AO2
KMNH 190830Z AUTO 03006KT 1/4SM FZFG OVC002 M07/M08 A2958 RMK AO2
KMNH 190812Z AUTO 02006KT 1/4SM FZFG OVC002 M07/M08 A2958 RMK AO2
KMNH 190754Z AUTO 03007KT 1/4SM FZFG OVC002 M07/M07 A2958 RMK AO2
KMNH 190730Z AUTO 04006KT 1/4SM FZFG OVC002 M06/M06 A2959 RMK AO2
KMNH 190712Z AUTO 34005KT 1/4SM FZFG OVC002 M06/M06 A2959 RMK AO2
KMNH 190653Z AUTO 01005KT 1/4SM FZFG OVC002 M06/M06 A2959 RMK AO2
KMNH 190630Z AUTO 03003KT M1/4SM FZFG OVC002 M05/M06 A2960 RMK AO2
KMNH 190612Z AUTO 02005KT M1/4SM FZFG OVC002 M05/M06 A2959 RMK AO2
KMNH 190553Z AUTO 36007KT 1/4SM FZFG OVC002 M05/M05 A2959 RMK AO2
KMNH 190529Z AUTO 36008KT 7SM BKN002 OVC008 M04/M05 A2959 RMK AO2
KMNH 190512Z AUTO 30010KT 10SM SCT004 SCT008 M03/M05 A2957 RMK AO2
KMNH 190453Z AUTO 30013G19KT 10SM CLR M02/M05 A2957 RMK AO2
KMNH 190430Z AUTO 25011KT 10SM CLR 03/M10 A2954 RMK AO2
KMNH 190412Z AUTO 22007KT 10SM CLR 02/M11 A2954 RMK AO2
KMNH 190354Z AUTO 25008KT 10SM CLR 02/M12 A2954 RMK AO2
KMNH 190330Z AUTO 27010KT 10SM CLR 05/M13 A2953 RMK AO2
KMNH 190312Z AUTO 26008KT 10SM CLR 02/M13 A2954 RMK AO2
KMNH 190254Z AUTO 25006KT 10SM CLR 04/M14 A2954 RMK AO2
KMNH 190230Z AUTO 23008KT 10SM CLR 06/M15 A2954 RMK AO2
KMNH 190212Z AUTO 21009KT 10SM CLR 04/M14 A2954 RMK AO2
KMNH 190154Z AUTO 20009KT 10SM CLR 06/M16 A2953 RMK AO2
KMNH 190130Z AUTO 24012G16KT 10SM CLR 08/M16 A2954 RMK AO2
KMNH 190112Z AUTO 24015KT 10SM CLR 09/M17 A2953 RMK AO2
KMNH 190054Z AUTO 25014G26KT 10SM CLR 10/M17 A2953 RMK AO2
KMNH 190030Z AUTO 25019G26KT 10SM CLR 10/M17 A2953 RMK AO2
KMNH 190012Z AUTO 24019G28KT 10SM CLR 11/M17 A2953 RMK AO2
KMNH 182353Z AUTO 25019G28KT 10SM CLR 12/M17 A2953 RMK AO2
KMNH 182329Z AUTO 23014G25KT 10SM CLR 13/M17 A2953 RMK AO2
KMNH 182312Z AUTO 26021G27KT 10SM CLR 13/M17 A2953 RMK AO2
KMNH 182254Z AUTO 26023G31KT 10SM CLR 13/M17 A2953 RMK AO2
KMNH 182230Z AUTO 26026G31KT 10SM CLR 14/M17 A2953 RMK AO2
KMNH 182212Z AUTO 26021G28KT 10SM CLR 14/M16 A2953 RMK AO2
KMNH 182154Z AUTO 25025G35KT 10SM CLR 14/M16 A2951 RMK AO2
KMNH 182130Z AUTO 26029G36KT 10SM CLR 14/M17 A2953 RMK AO2
KMNH 182112Z AUTO 25029G38KT 10SM CLR 14/M17 A2953 RMK AO2
KMNH 182054Z AUTO 26030G38KT 10SM CLR 15/M16 A2953 RMK AO2
KMNH 182030Z AUTO 25030G38KT 10SM CLR 14/M16 A2954 RMK AO2
KMNH 182012Z AUTO 24032G41KT 10SM CLR 13/M16 A2953 RMK AO2
KMNH 181952Z AUTO 25033G41KT 10SM CLR 14/M16 A2954 RMK AO2
KMNH 181934Z AUTO 25034G50KT 10SM CLR 13/M17 A2954 RMK AO2
KMNH 181911Z AUTO 24041G52KT 10SM CLR 13/M17 A2955 RMK AO2
KMNH 181854Z AUTO 25035G47KT 10SM CLR 13/M17 A2956 RMK AO2
KMNH 181830Z AUTO 25033G42KT 10SM CLR 12/M17 A2958 RMK AO2
KMNH 181812Z AUTO 24032G42KT 10SM CLR 12/M17 A2958 RMK AO2
KMNH 181754Z AUTO 25034G47KT 10SM CLR 12/M17 A2958 RMK AO2
KMNH 181730Z AUTO 25034G46KT 10SM CLR 12/M17 A2957 RMK AO2
KMNH 181712Z AUTO 24031G52KT 10SM CLR 10/M17 A2956 RMK AO2
KMNH 181654Z AUTO 24029G37KT 10SM CLR 10/M17 A2957 RMK AO2
KMNH 181630Z AUTO 24026G37KT 10SM CLR 09/M16 A2960 RMK AO2
KMNH 181612Z AUTO 24027G35KT 10SM CLR 08/M16 A2961 RMK AO2
KMNH 181554Z AUTO 24030G40KT 10SM CLR 08/M16 A2961 RMK AO2